EWG82N EDDG-LEPA
Flight info
| Callsign | EWG82N |
|---|---|
| Flight time | N/A |
| Altitude | 24000 |
| Route | DOMEG1E/07 DOMEG N853 QATJA Y841 NVO/N0445F360 Y841 KENUM DCT ARCKY DCT GESLO/N0445F370 DCT LIMGO DCT SUTAL DCT GTQ DCT POGOL DCT LASAT DCT MOROK DCT GILIR DCT GEVEA DCT INCUS DCT BALSI DCT RETNO DCT TUPOX DCT MTG DCT DIVKO DCT VATIR DCT PIVUS DCT BODEQ DCT VERSO L129 LUNIK |
| Aircraft | A320/M-SDE3FGHIRWY/LB1 |
Departure
| Time | 2026-04-30 21:27 |
|---|---|
| Airport | Münster Osnabrück Airport (EDDG) |
Arrival
| Time | N/A |
|---|---|
| Airport | Palma de Mallorca Airport (LEPA) |
| Time | Latitude | Longitude | Altitude | Speed | Heading |
|---|---|---|---|---|---|
| 2026-04-30 20:52 | 52.13183 | 7.69456 | 168 ft | 0 kts | 197° |
| 2026-04-30 21:14 | 52.13184 | 7.69456 | 167 ft | 1 kts | 197° |
| 2026-04-30 21:14 | 52.13199 | 7.69464 | 168 ft | 3 kts | 197° |
| 2026-04-30 21:14 | 52.13218 | 7.69473 | 167 ft | 3 kts | 198° |
| 2026-04-30 21:15 | 52.13237 | 7.69485 | 168 ft | 3 kts | 210° |
| 2026-04-30 21:15 | 52.13254 | 7.69503 | 167 ft | 3 kts | 224° |
| 2026-04-30 21:15 | 52.13267 | 7.69528 | 168 ft | 3 kts | 238° |
| 2026-04-30 21:15 | 52.13275 | 7.69552 | 168 ft | 1 kts | 251° |
| 2026-04-30 21:16 | 52.13277 | 7.69561 | 167 ft | 0 kts | 251° |
| 2026-04-30 21:18 | 52.13271 | 7.69536 | 167 ft | 7 kts | 250° |
| 2026-04-30 21:19 | 52.13255 | 7.69461 | 167 ft | 9 kts | 251° |
| 2026-04-30 21:19 | 52.13249 | 7.69334 | 167 ft | 13 kts | 304° |
| 2026-04-30 21:19 | 52.13344 | 7.69271 | 167 ft | 17 kts | 340° |
| 2026-04-30 21:19 | 52.13435 | 7.69168 | 167 ft | 17 kts | 279° |
| 2026-04-30 21:20 | 52.13394 | 7.68973 | 167 ft | 20 kts | 252° |
| 2026-04-30 21:20 | 52.13345 | 7.68745 | 167 ft | 23 kts | 250° |
| 2026-04-30 21:20 | 52.13291 | 7.68488 | 167 ft | 23 kts | 251° |
| 2026-04-30 21:20 | 52.13238 | 7.68237 | 168 ft | 24 kts | 251° |
| 2026-04-30 21:21 | 52.13181 | 7.67967 | 167 ft | 25 kts | 251° |
| 2026-04-30 21:21 | 52.13132 | 7.67744 | 167 ft | 21 kts | 251° |
| 2026-04-30 21:21 | 52.13065 | 7.67429 | 167 ft | 14 kts | 251° |
| 2026-04-30 21:22 | 52.13031 | 7.67268 | 167 ft | 13 kts | 252° |
| 2026-04-30 21:22 | 52.13056 | 7.67097 | 167 ft | 0 kts | 310° |
| 2026-04-30 21:25 | 52.13059 | 7.67091 | 167 ft | 2 kts | 311° |
| 2026-04-30 21:25 | 52.13087 | 7.67052 | 167 ft | 10 kts | 320° |
| 2026-04-30 21:25 | 52.13162 | 7.67051 | 166 ft | 12 kts | 40° |
| 2026-04-30 21:26 | 52.13176 | 7.67118 | 166 ft | 0 kts | 70° |
| 2026-04-30 21:26 | 52.13250 | 7.67467 | 165 ft | 74 kts | 71° |
| 2026-04-30 21:27 | 52.13829 | 7.70240 | 640 ft | 152 kts | 72° |
| 2026-04-30 21:27 | 52.14127 | 7.71716 | 1411 ft | 146 kts | 78° |
| 2026-04-30 21:27 | 52.14436 | 7.73306 | 2047 ft | 156 kts | 79° |
| 2026-04-30 21:28 | 52.15161 | 7.77166 | 2652 ft | 204 kts | 78° |
| 2026-04-30 21:28 | 52.15590 | 7.79537 | 3110 ft | 222 kts | 83° |
| 2026-04-30 21:28 | 52.14312 | 7.83764 | 4491 ft | 242 kts | 149° |
| 2026-04-30 21:29 | 52.12731 | 7.84805 | 5295 ft | 253 kts | 162° |
| 2026-04-30 21:29 | 52.07289 | 7.84227 | 7933 ft | 277 kts | 196° |
| 2026-04-30 21:30 | 52.03656 | 7.81804 | 9593 ft | 289 kts | 199° |
| 2026-04-30 21:31 | 51.97828 | 7.77657 | 11145 ft | 336 kts | 200° |
| 2026-04-30 21:31 | 51.93327 | 7.74459 | 12152 ft | 361 kts | 200° |
| 2026-04-30 21:32 | 51.88687 | 7.71170 | 13624 ft | 369 kts | 198° |
| 2026-04-30 21:32 | 51.86218 | 7.70029 | 14322 ft | 369 kts | 188° |
| 2026-04-30 21:32 | 51.83691 | 7.69136 | 14974 ft | 373 kts | 188° |
| 2026-04-30 21:32 | 51.81160 | 7.68254 | 15602 ft | 377 kts | 188° |
| 2026-04-30 21:33 | 51.78579 | 7.67357 | 16219 ft | 381 kts | 188° |
| 2026-04-30 21:33 | 51.73340 | 7.65532 | 17460 ft | 390 kts | 189° |
| 2026-04-30 21:33 | 51.70669 | 7.64605 | 18066 ft | 394 kts | 189° |
| 2026-04-30 21:34 | 51.67996 | 7.63666 | 18672 ft | 398 kts | 189° |
| 2026-04-30 21:34 | 51.62521 | 7.61672 | 19710 ft | 405 kts | 190° |
| 2026-04-30 21:34 | 51.59793 | 7.60666 | 20232 ft | 408 kts | 190° |
| 2026-04-30 21:35 | 51.57004 | 7.59638 | 20770 ft | 411 kts | 190° |
| 2026-04-30 21:35 | 51.54195 | 7.58611 | 21291 ft | 414 kts | 190° |
| 2026-04-30 21:35 | 51.51394 | 7.57592 | 21798 ft | 417 kts | 190° |
| 2026-04-30 21:35 | 51.48539 | 7.56555 | 22305 ft | 420 kts | 190° |
| 2026-04-30 21:36 | 51.45704 | 7.55529 | 22805 ft | 422 kts | 190° |
| 2026-04-30 21:36 | 51.42815 | 7.54487 | 23303 ft | 425 kts | 190° |
| 2026-04-30 21:37 | 51.34075 | 7.51341 | 24605 ft | 434 kts | 191° |
| 2026-04-30 21:37 | 51.31110 | 7.50273 | 25008 ft | 436 kts | 191° |
| 2026-04-30 21:37 | 51.28161 | 7.49211 | 25407 ft | 439 kts | 191° |
| 2026-04-30 21:37 | 51.25160 | 7.48133 | 25803 ft | 441 kts | 191° |
| 2026-04-30 21:38 | 51.22142 | 7.47046 | 26191 ft | 444 kts | 191° |
| 2026-04-30 21:38 | 51.19152 | 7.45975 | 26562 ft | 446 kts | 191° |
| 2026-04-30 21:38 | 51.16093 | 7.44889 | 26938 ft | 449 kts | 191° |
| 2026-04-30 21:38 | 51.13061 | 7.43813 | 27304 ft | 451 kts | 191° |
| 2026-04-30 21:39 | 51.09967 | 7.42713 | 27659 ft | 454 kts | 191° |
| 2026-04-30 21:39 | 51.06870 | 7.41612 | 28010 ft | 456 kts | 191° |
| 2026-04-30 21:39 | 51.03789 | 7.40519 | 28349 ft | 459 kts | 191° |
| 2026-04-30 21:39 | 51.00647 | 7.39405 | 28696 ft | 461 kts | 191° |
| 2026-04-30 21:40 | 50.97542 | 7.38305 | 29030 ft | 463 kts | 191° |
| 2026-04-30 21:40 | 50.94377 | 7.37183 | 29360 ft | 465 kts | 191° |
| 2026-04-30 21:40 | 50.91199 | 7.36060 | 29693 ft | 467 kts | 191° |
| 2026-04-30 21:40 | 50.88060 | 7.34954 | 30080 ft | 467 kts | 191° |
| 2026-04-30 21:41 | 50.84871 | 7.33833 | 30533 ft | 466 kts | 191° |
| 2026-04-30 21:41 | 50.81697 | 7.32717 | 30936 ft | 465 kts | 191° |
| 2026-04-30 21:41 | 50.78567 | 7.31616 | 31340 ft | 464 kts | 191° |
| 2026-04-30 21:41 | 50.75406 | 7.30509 | 31727 ft | 463 kts | 191° |
| 2026-04-30 21:42 | 50.72249 | 7.29404 | 32112 ft | 462 kts | 191° |
| 2026-04-30 21:42 | 50.69149 | 7.28320 | 32487 ft | 462 kts | 191° |
| 2026-04-30 21:42 | 50.66003 | 7.27224 | 32866 ft | 461 kts | 191° |
| 2026-04-30 21:42 | 50.62866 | 7.26134 | 33254 ft | 460 kts | 191° |
| 2026-04-30 21:43 | 50.59764 | 7.25054 | 33609 ft | 459 kts | 191° |
| 2026-04-30 21:43 | 50.57694 | 7.24332 | 33863 ft | 459 kts | 191° |
| 2026-04-30 21:43 | 50.53544 | 7.22884 | 34368 ft | 458 kts | 191° |
| 2026-04-30 21:43 | 50.50426 | 7.21800 | 34700 ft | 457 kts | 191° |
| 2026-04-30 21:44 | 50.47297 | 7.20718 | 35026 ft | 456 kts | 191° |
| 2026-04-30 21:44 | 50.44223 | 7.19654 | 35359 ft | 456 kts | 191° |
| 2026-04-30 21:44 | 50.41112 | 7.18576 | 35682 ft | 455 kts | 191° |
| 2026-04-30 21:44 | 50.38020 | 7.17507 | 35998 ft | 454 kts | 191° |
| 2026-04-30 21:45 | 50.34956 | 7.16451 | 36262 ft | 455 kts | 191° |
| 2026-04-30 21:45 | 50.31851 | 7.15384 | 36351 ft | 455 kts | 191° |
| 2026-04-30 21:45 | 50.25677 | 7.13266 | 36355 ft | 456 kts | 191° |
| 2026-04-30 21:46 | 50.19494 | 7.11150 | 36356 ft | 456 kts | 190° |
| 2026-04-30 21:46 | 50.13272 | 7.09032 | 36359 ft | 456 kts | 190° |
| 2026-04-30 21:47 | 50.07100 | 7.06926 | 36354 ft | 456 kts | 190° |
| 2026-04-30 21:47 | 50.00916 | 7.04818 | 36335 ft | 456 kts | 190° |
| 2026-04-30 21:48 | 49.94724 | 7.02718 | 36334 ft | 456 kts | 190° |
| 2026-04-30 21:48 | 49.88528 | 7.00620 | 36332 ft | 456 kts | 190° |
| 2026-04-30 21:49 | 49.83341 | 6.98873 | 36330 ft | 456 kts | 190° |
| 2026-04-30 21:49 | 49.77151 | 6.96799 | 36327 ft | 456 kts | 190° |
| 2026-04-30 21:50 | 49.70925 | 6.94714 | 36321 ft | 456 kts | 190° |
| 2026-04-30 21:50 | 49.64727 | 6.92648 | 36315 ft | 456 kts | 190° |
| 2026-04-30 21:51 | 49.58537 | 6.90580 | 36307 ft | 456 kts | 190° |
| 2026-04-30 21:51 | 49.52303 | 6.88503 | 36314 ft | 456 kts | 190° |
| 2026-04-30 21:52 | 49.46104 | 6.86437 | 36313 ft | 456 kts | 190° |
| 2026-04-30 21:52 | 49.39923 | 6.84385 | 36312 ft | 456 kts | 190° |
| 2026-04-30 21:53 | 49.33694 | 6.82401 | 36306 ft | 456 kts | 189° |
| 2026-04-30 21:53 | 49.27496 | 6.80510 | 36306 ft | 456 kts | 189° |
| 2026-04-30 21:54 | 49.21245 | 6.78603 | 36307 ft | 456 kts | 189° |
| 2026-04-30 21:54 | 49.15040 | 6.76686 | 36302 ft | 456 kts | 189° |
| 2026-04-30 21:55 | 49.08829 | 6.74759 | 36304 ft | 457 kts | 189° |
| 2026-04-30 21:55 | 49.02578 | 6.72831 | 36298 ft | 457 kts | 189° |
| 2026-04-30 21:56 | 48.96353 | 6.71522 | 36293 ft | 453 kts | 179° |
| 2026-04-30 21:56 | 48.90020 | 6.71278 | 36291 ft | 453 kts | 179° |
| 2026-04-30 21:57 | 48.83734 | 6.71034 | 36293 ft | 453 kts | 179° |
| 2026-04-30 21:57 | 48.77451 | 6.70790 | 36282 ft | 453 kts | 179° |
| 2026-04-30 21:58 | 48.71122 | 6.70545 | 36283 ft | 453 kts | 179° |
| 2026-04-30 21:58 | 48.64832 | 6.70301 | 36279 ft | 453 kts | 179° |
| 2026-04-30 21:59 | 48.58548 | 6.70057 | 36277 ft | 453 kts | 179° |
| 2026-04-30 22:00 | 48.49079 | 6.69702 | 36274 ft | 453 kts | 179° |
| 2026-04-30 22:00 | 48.39609 | 6.69326 | 36273 ft | 454 kts | 179° |
| 2026-04-30 22:01 | 48.33314 | 6.69074 | 36266 ft | 454 kts | 179° |
| 2026-04-30 22:01 | 48.26957 | 6.68832 | 36272 ft | 454 kts | 179° |
| 2026-04-30 22:02 | 48.20651 | 6.68603 | 36279 ft | 454 kts | 179° |
| 2026-04-30 22:02 | 48.14349 | 6.68366 | 36268 ft | 455 kts | 179° |
| 2026-04-30 22:03 | 48.07992 | 6.68110 | 36264 ft | 455 kts | 179° |
| 2026-04-30 22:03 | 48.01673 | 6.67866 | 36264 ft | 455 kts | 179° |
| 2026-04-30 22:04 | 47.95344 | 6.67633 | 36264 ft | 455 kts | 179° |
| 2026-04-30 22:05 | 47.85861 | 6.67287 | 36258 ft | 456 kts | 179° |
| 2026-04-30 22:05 | 47.79497 | 6.67043 | 36255 ft | 456 kts | 179° |
| 2026-04-30 22:06 | 47.73164 | 6.66803 | 36253 ft | 457 kts | 179° |
| 2026-04-30 22:06 | 47.63616 | 6.66449 | 36254 ft | 457 kts | 179° |
| 2026-04-30 22:07 | 47.57260 | 6.66207 | 36257 ft | 458 kts | 180° |
| 2026-04-30 22:07 | 47.50904 | 6.65965 | 36254 ft | 458 kts | 180° |
| 2026-04-30 22:08 | 47.44513 | 6.65575 | 36256 ft | 459 kts | 187° |
| 2026-04-30 22:08 | 47.38422 | 6.62856 | 36254 ft | 461 kts | 206° |
| 2026-04-30 22:09 | 47.33216 | 6.57432 | 36247 ft | 461 kts | 220° |
| 2026-04-30 22:09 | 47.28338 | 6.51292 | 36258 ft | 461 kts | 220° |
| 2026-04-30 22:10 | 47.23419 | 6.45159 | 36255 ft | 461 kts | 220° |
| 2026-04-30 22:10 | 47.18530 | 6.39079 | 36250 ft | 461 kts | 220° |
| 2026-04-30 22:11 | 47.11194 | 6.29962 | 36246 ft | 460 kts | 219° |
| 2026-04-30 22:12 | 47.05767 | 6.25117 | 36239 ft | 459 kts | 201° |
| 2026-04-30 22:12 | 46.99599 | 6.23015 | 36240 ft | 457 kts | 184° |
| 2026-04-30 22:13 | 46.93237 | 6.22187 | 36239 ft | 458 kts | 184° |
| 2026-04-30 22:13 | 46.86860 | 6.21326 | 36246 ft | 459 kts | 185° |
| 2026-04-30 22:14 | 46.80505 | 6.20468 | 36237 ft | 459 kts | 185° |
| 2026-04-30 22:14 | 46.74142 | 6.19625 | 36247 ft | 460 kts | 185° |
| 2026-04-30 22:15 | 46.67781 | 6.18795 | 36260 ft | 460 kts | 185° |
| 2026-04-30 22:15 | 46.61423 | 6.17956 | 36265 ft | 460 kts | 185° |
| 2026-04-30 22:16 | 46.55068 | 6.17109 | 36266 ft | 459 kts | 185° |
| 2026-04-30 22:17 | 46.42329 | 6.15438 | 36269 ft | 458 kts | 185° |
| 2026-04-30 22:17 | 46.32807 | 6.14193 | 36281 ft | 458 kts | 185° |
| 2026-04-30 22:18 | 46.23293 | 6.12895 | 36281 ft | 458 kts | 187° |
| 2026-04-30 22:19 | 46.13855 | 6.10774 | 36283 ft | 457 kts | 190° |
| 2026-04-30 22:20 | 46.04475 | 6.08532 | 36256 ft | 457 kts | 189° |
| 2026-04-30 22:20 | 45.95039 | 6.06472 | 36253 ft | 456 kts | 189° |
| 2026-04-30 22:21 | 45.88788 | 6.05122 | 36253 ft | 456 kts | 189° |
| 2026-04-30 22:21 | 45.82517 | 6.03741 | 36251 ft | 456 kts | 190° |
| 2026-04-30 22:22 | 45.76245 | 6.02352 | 36252 ft | 456 kts | 190° |
| 2026-04-30 22:22 | 45.69986 | 6.00965 | 36251 ft | 455 kts | 190° |
| 2026-04-30 22:23 | 45.63735 | 5.99583 | 36248 ft | 455 kts | 190° |
| 2026-04-30 22:23 | 45.57444 | 5.98196 | 36252 ft | 455 kts | 190° |
| 2026-04-30 22:24 | 45.51226 | 5.96839 | 36252 ft | 454 kts | 190° |
| 2026-04-30 22:24 | 45.44964 | 5.95385 | 36249 ft | 453 kts | 193° |
| 2026-04-30 22:25 | 45.38814 | 5.93483 | 36250 ft | 453 kts | 195° |
| 2026-04-30 22:25 | 45.32699 | 5.91421 | 36251 ft | 452 kts | 195° |
| 2026-04-30 22:26 | 45.23478 | 5.88484 | 36255 ft | 452 kts | 194° |
| 2026-04-30 22:27 | 45.17342 | 5.86602 | 36259 ft | 452 kts | 194° |
| 2026-04-30 22:27 | 45.08138 | 5.83767 | 36260 ft | 451 kts | 194° |
| 2026-04-30 22:28 | 44.98935 | 5.80932 | 36256 ft | 451 kts | 194° |
| 2026-04-30 22:29 | 44.86714 | 5.77162 | 36254 ft | 450 kts | 195° |
| 2026-04-30 22:31 | 44.65349 | 5.70651 | 36254 ft | 449 kts | 195° |
| 2026-04-30 22:32 | 44.50063 | 5.65996 | 36256 ft | 450 kts | 195° |
| 2026-04-30 22:33 | 44.34943 | 5.60685 | 36254 ft | 445 kts | 204° |
| 2026-04-30 22:35 | 44.20538 | 5.52797 | 36247 ft | 444 kts | 204° |
| 2026-04-30 22:36 | 44.06167 | 5.44976 | 36243 ft | 443 kts | 204° |
| 2026-04-30 22:37 | 43.94699 | 5.38757 | 36235 ft | 443 kts | 204° |
| 2026-04-30 22:38 | 43.84188 | 5.33068 | 36226 ft | 443 kts | 204° |
| 2026-04-30 22:39 | 43.75556 | 5.28418 | 36219 ft | 443 kts | 204° |
| 2026-04-30 22:40 | 43.58359 | 5.19199 | 36223 ft | 442 kts | 204° |
| 2026-04-30 22:41 | 43.44040 | 5.11561 | 36220 ft | 441 kts | 204° |
| 2026-04-30 22:42 | 43.33345 | 5.03691 | 36216 ft | 435 kts | 217° |
| 2026-04-30 22:43 | 43.28369 | 4.98997 | 36211 ft | 435 kts | 217° |
| 2026-04-30 22:44 | 43.18387 | 4.89634 | 36214 ft | 435 kts | 217° |
| 2026-04-30 22:45 | 43.03273 | 4.75904 | 36220 ft | 436 kts | 212° |
| 2026-04-30 22:47 | 42.87369 | 4.63869 | 36221 ft | 436 kts | 212° |
| 2026-04-30 22:48 | 42.76773 | 4.55864 | 36221 ft | 435 kts | 212° |
| 2026-04-30 22:49 | 42.60869 | 4.43948 | 36214 ft | 435 kts | 212° |
| 2026-04-30 22:51 | 42.44965 | 4.32092 | 36210 ft | 434 kts | 212° |
| 2026-04-30 22:52 | 42.37045 | 4.26211 | 36209 ft | 434 kts | 212° |
| 2026-04-30 22:53 | 42.26472 | 4.18378 | 36206 ft | 433 kts | 212° |
| 2026-04-30 22:53 | 42.18530 | 4.12521 | 36201 ft | 433 kts | 212° |
| 2026-04-30 22:55 | 42.05325 | 4.02828 | 36196 ft | 432 kts | 212° |
| 2026-04-30 22:56 | 41.94750 | 3.95098 | 36192 ft | 432 kts | 211° |
| 2026-04-30 22:56 | 41.85987 | 3.91877 | 36182 ft | 441 kts | 194° |
| 2026-04-30 22:57 | 41.79930 | 3.90493 | 36177 ft | 442 kts | 194° |
| 2026-04-30 22:58 | 41.67800 | 3.87696 | 36171 ft | 442 kts | 194° |
| 2026-04-30 22:59 | 41.49584 | 3.83533 | 36162 ft | 443 kts | 194° |